KQFX

Buron

Buron, South Korea
METAR KQFX 141220Z AUTO 12001KT 9999 CLR M08/M11 A3057 RMK A02 TSNO
Observed Flight Rules
Dec-14 @ 12:20 UTC (22 minutes ago) Visual Flight Rules
Wind Visibility Clouds
120° at 1 knots 10,000+ meters
  • Clear skies
Temperatures Readings
Current -8°C / 18°F
Dewpoint -11°C / 12°F
Humidity 79%
Altimeter 30.57" Hg
Pressure 1035 hPa
METAR KQFX 141220Z AUTO 12001KT 9999 CLR M08/M11 A3057 RMK A02 TSNO
Observed Flight Rules
Dec-14 @ 12:20 UTC
(22 minutes ago)
VFR
Wind Visibility
120° at 1 knots 10,000+ meters
Clouds
  • Clear skies
Temperature Dewpoint
-8°C / 18°F -11°C / 12°F
Humidity Altimeter Pressure
79% 30.57" Hg 1035 hPa